Time;durP1;ratioP1;P1;durP2;ratioP2;P2;SDS_P1;SDS_P2;PMS_P1;PMS_P2;Temp;Humidity;BMP_temperature;BMP_pressure;BME280_temperature;BME280_humidity;BME280_pressure;Samples;Min_cycle;Max_cycle;Signal;HPM_P1;HPM_P2
2020/12/19 00:01:13;;;;;;;;;;;13.60;99.90;;;12.97;100.00;101064.66;5054062;28;19924;-64
2020/12/19 00:03:40;;;;;;;;;;;13.60;99.90;;;12.97;100.00;101060.03;5054040;28;20368;-63
2020/12/19 00:06:08;;;;;;;;;;;13.60;99.90;;;13.00;100.00;101056.72;5054421;28;20372;-64
2020/12/19 00:08:35;;;;;;;;;;;13.60;99.90;;;12.99;100.00;101060.53;5054052;28;20456;-64
2020/12/19 00:11:02;;;;;;;;;;;13.60;99.90;;;13.00;100.00;101059.44;5053714;28;19936;-64
2020/12/19 00:13:30;;;;;;;;;;;13.60;99.90;;;13.01;100.00;101055.59;5053695;28;19971;-63
2020/12/19 00:15:57;;;;;;;;;;;13.60;99.90;;;13.05;100.00;101043.03;5054433;28;19928;-63
2020/12/19 00:18:24;;;;;;;;;;;13.60;99.90;;;13.07;100.00;101035.41;5054210;28;19971;-63
2020/12/19 00:20:52;;;;;;;;;;;13.70;99.90;;;13.12;100.00;101037.25;5053665;28;19924;-63
2020/12/19 00:23:20;;;;;;;;;;;13.70;99.90;;;13.11;100.00;101033.72;5053189;28;20280;-63
2020/12/19 00:25:47;;;;;;;;;;;13.70;99.90;;;13.17;100.00;101034.44;5053985;28;20339;-63
2020/12/19 00:28:14;;;;;;;;;;;13.80;99.90;;;13.17;100.00;101037.16;5054021;28;19952;-63
2020/12/19 00:30:42;;;;;;;;;;;13.80;99.90;;;13.17;100.00;101030.91;5053836;28;20077;-63
2020/12/19 00:33:09;;;;;;;;;;;13.80;99.90;;;13.19;100.00;101034.16;5052857;28;19968;-63
2020/12/19 00:35:37;;;;;;;;;;;13.80;99.90;;;13.19;100.00;101029.53;5053848;28;19925;-63
2020/12/19 00:38:04;;;;;;;;;;;13.80;99.90;;;13.21;100.00;101026.50;5053880;28;20343;-65
2020/12/19 00:40:31;;;;;;;;;;;13.80;99.90;;;13.22;100.00;101009.09;5053625;28;19925;-63
2020/12/19 00:42:58;;;;;;;;;;;13.80;99.90;;;13.23;100.00;101005.25;5051652;28;19982;-63
2020/12/19 00:45:25;;;;;;;;;;;13.80;99.90;;;13.22;100.00;101003.66;5053679;28;19925;-63
2020/12/19 00:47:53;;;;;;;;;;;13.80;99.90;;;13.23;100.00;101000.63;5053638;28;19928;-65
2020/12/19 00:50:21;;;;;;;;;;;13.80;99.90;;;13.22;100.00;101001.75;5053372;28;20364;-63
2020/12/19 00:52:48;;;;;;;;;;;13.80;99.90;;;13.23;100.00;101003.34;5052683;28;19928;-63
2020/12/19 00:55:15;;;;;;;;;;;13.80;99.90;;;13.25;100.00;101000.34;5053340;28;19928;-66
2020/12/19 00:57:42;;;;;;;;;;;13.80;99.90;;;13.25;100.00;100997.63;5053338;28;19928;-63
2020/12/19 01:00:10;;;;;;;;;;;13.80;99.90;;;13.26;100.00;100999.22;5053392;28;19955;-63
2020/12/19 01:02:37;;;;;;;;;;;13.90;99.90;;;13.29;100.00;100993.19;5052273;28;19936;-63
2020/12/19 01:05:07;;;;;;;;;;;13.90;99.90;;;13.29;100.00;100976.88;5053115;28;20292;-63
2020/12/19 01:07:37;;;;;;;;;;;13.90;99.90;;;13.28;100.00;100973.41;5053236;28;19959;-63
2020/12/19 01:10:06;;;;;;;;;;;13.90;99.90;;;13.32;100.00;100970.84;5053079;28;19932;-63
2020/12/19 01:12:34;;;;;;;;;;;13.90;99.90;;;13.33;100.00;100975.19;5052070;28;19925;-63
2020/12/19 01:15:01;;;;;;;;;;;13.90;99.90;;;13.33;100.00;100967.03;5053099;28;19971;-65
2020/12/19 01:17:28;;;;;;;;;;;13.90;99.90;;;13.34;100.00;100963.22;5052937;28;19936;-63
2020/12/19 01:19:55;;;;;;;;;;;13.90;99.90;;;13.33;100.00;100972.47;5053247;28;19932;-63
2020/12/19 01:22:23;;;;;;;;;;;13.90;99.90;;;13.33;100.00;100970.56;5051875;28;19929;-64
2020/12/19 01:24:50;;;;;;;;;;;13.90;99.90;;;13.34;100.00;100964.03;5052959;28;19925;-64
2020/12/19 01:27:18;;;;;;;;;;;14.00;99.90;;;13.36;100.00;100953.66;5052632;28;19929;-64
2020/12/19 01:29:45;;;;;;;;;;;14.00;99.90;;;13.38;100.00;100947.91;5052706;28;19924;-64
2020/12/19 01:32:12;;;;;;;;;;;14.00;99.90;;;13.40;100.00;100956.56;5051951;28;19928;-63
2020/12/19 01:34:39;;;;;;;;;;;14.00;99.90;;;13.40;100.00;100949.22;5052519;28;19925;-64
2020/12/19 01:37:06;;;;;;;;;;;14.00;99.90;;;13.40;100.00;100953.84;5052837;28;20346;-63
2020/12/19 01:39:34;;;;;;;;;;;14.00;99.90;;;13.39;100.00;100942.19;5052657;28;20269;-63
2020/12/19 01:42:02;;;;;;;;;;;14.00;99.90;;;13.41;100.00;100950.00;5051985;28;19925;-63
2020/12/19 01:44:29;;;;;;;;;;;14.00;99.90;;;13.41;100.00;100952.72;5052252;28;19951;-63
2020/12/19 01:46:58;;;;;;;;;;;14.00;99.90;;;13.38;100.00;100958.78;5052764;28;19932;-63
2020/12/19 01:49:26;;;;;;;;;;;14.00;99.90;;;13.36;100.00;100958.28;5052360;28;19931;-63
2020/12/19 01:51:54;;;;;;;;;;;14.00;99.90;;;13.33;100.00;100950.75;5051519;28;19959;-63
2020/12/19 01:54:22;;;;;;;;;;;13.90;99.90;;;13.30;100.00;100952.16;5051840;28;19925;-63
2020/12/19 01:56:54;;;;;;;;;;;13.90;99.90;;;13.28;100.00;100946.25;5052211;28;20388;-63
2020/12/19 01:59:22;;;;;;;;;;;13.90;99.90;;;13.24;100.00;100947.94;5052176;28;19932;-63
2020/12/19 02:01:51;;;;;;;;;;;13.90;99.90;;;13.24;100.00;100958.00;5051453;28;19924;-63
2020/12/19 02:04:19;;;;;;;;;;;13.90;99.90;;;13.22;100.00;100954.78;5052154;28;19929;-63
2020/12/19 02:06:48;;;;;;;;;;;13.80;99.90;;;13.21;100.00;100953.97;5052319;28;19924;-63
2020/12/19 02:09:16;;;;;;;;;;;13.80;99.90;;;13.20;100.00;100952.38;5052095;28;19924;-63
2020/12/19 02:11:43;;;;;;;;;;;13.80;99.90;;;13.19;100.00;100945.34;5051377;28;20354;-63
2020/12/19 02:14:12;;;;;;;;;;;13.80;99.90;;;13.22;100.00;100938.50;5052026;28;20299;-63
2020/12/19 02:16:40;;;;;;;;;;;13.80;99.90;;;13.20;100.00;100936.06;5052220;28;20299;-63
2020/12/19 02:19:13;;;;;;;;;;;13.80;99.90;;;13.22;100.00;100936.59;5052225;28;20394;-63
2020/12/19 02:21:43;;;;;;;;;;;13.80;99.90;;;13.22;100.00;100935.78;5051139;28;19925;-63
2020/12/19 02:24:11;;;;;;;;;;;13.80;99.90;;;13.21;100.00;100948.56;5051774;28;19924;-63
2020/12/19 02:26:38;;;;;;;;;;;13.80;99.90;;;13.18;100.00;100942.91;5051994;28;19938;-63
2020/12/19 02:29:07;;;;;;;;;;;13.80;99.90;;;13.19;100.00;100958.13;5052091;28;20292;-63
2020/12/19 02:31:35;;;;;;;;;;;13.80;99.90;;;13.20;100.00;100949.66;5051359;28;19935;-63
2020/12/19 02:34:03;;;;;;;;;;;13.80;99.90;;;13.21;100.00;100947.75;5051401;28;19983;-63
2020/12/19 02:36:30;;;;;;;;;;;13.80;99.90;;;13.20;100.00;100946.94;5051978;28;19929;-63
2020/12/19 02:38:57;;;;;;;;;;;13.80;99.90;;;13.19;100.00;100945.34;5051954;28;19928;-63
2020/12/19 02:41:25;;;;;;;;;;;13.80;99.90;;;13.19;100.00;100949.97;5051312;28;20442;-64
2020/12/19 02:43:53;;;;;;;;;;;13.80;99.90;;;13.20;100.00;100946.94;5050983;28;20589;-63
2020/12/19 02:46:21;;;;;;;;;;;13.80;99.90;;;13.19;100.00;100944.53;5051905;28;19982;-63
2020/12/19 02:48:48;;;;;;;;;;;13.80;99.90;;;13.20;100.00;100946.94;5051736;28;19928;-64
2020/12/19 02:51:15;;;;;;;;;;;13.80;99.90;;;13.22;100.00;100943.94;5051483;28;20360;-63
2020/12/19 02:53:42;;;;;;;;;;;13.80;99.90;;;13.21;100.00;100947.75;5051154;28;20334;-64
2020/12/19 02:56:10;;;;;;;;;;;13.80;99.90;;;13.22;100.00;100935.78;5051858;28;19935;-63
2020/12/19 02:58:38;;;;;;;;;;;13.80;99.90;;;13.23;100.00;100935.47;5051511;28;19924;-64
2020/12/19 03:01:05;;;;;;;;;;;13.90;99.90;;;13.24;100.00;100941.72;5051639;28;19924;-63
2020/12/19 03:03:32;;;;;;;;;;;13.80;99.90;;;13.23;100.00;100943.63;5051126;28;19925;-63
2020/12/19 03:05:59;;;;;;;;;;;13.90;99.90;;;13.27;100.00;100943.81;5052265;28;19925;-64
2020/12/19 03:08:27;;;;;;;;;;;13.90;99.90;;;13.30;100.00;100940.50;5055367;28;19932;-64
2020/12/19 03:10:54;;;;;;;;;;;13.90;99.90;;;13.30;100.00;100937.78;5055350;28;19978;-63
2020/12/19 03:13:21;;;;;;;;;;;13.90;99.90;;;13.32;100.00;100943.69;5054652;28;19931;-63
2020/12/19 03:15:49;;;;;;;;;;;13.90;99.90;;;13.32;100.00;100952.66;5055162;28;20334;-64
2020/12/19 03:18:16;;;;;;;;;;;13.90;99.90;;;13.34;100.00;100944.22;5055248;28;19933;-64
2020/12/19 03:20:43;;;;;;;;;;;13.90;99.90;;;13.36;100.00;100940.06;5055271;28;20245;-63
2020/12/19 03:23:11;;;;;;;;;;;13.90;99.90;;;13.38;100.00;100942.47;5054427;28;19928;-63
2020/12/19 03:25:38;;;;;;;;;;;14.00;99.90;;;13.41;100.00;100936.44;5055127;28;19948;-63
2020/12/19 03:28:05;;;;;;;;;;;14.00;99.90;;;13.46;100.00;100928.19;5055152;28;20292;-63
2020/12/19 03:30:32;;;;;;;;;;;14.00;99.90;;;13.47;100.00;100933.31;5054763;28;20342;-64
2020/12/19 03:33:00;;;;;;;;;;;14.00;99.90;;;13.51;100.00;100930.78;5054039;28;19978;-64
2020/12/19 03:35:27;;;;;;;;;;;14.10;99.90;;;13.53;100.00;100933.97;5054898;28;20376;-63
2020/12/19 03:37:55;;;;;;;;;;;14.10;99.90;;;13.53;100.00;100934.78;5055050;28;19929;-63
2020/12/19 03:40:22;;;;;;;;;;;14.10;99.90;;;13.53;100.00;100940.22;5054844;28;19924;-63
2020/12/19 03:42:50;;;;;;;;;;;14.10;99.90;;;13.54;100.00;100939.13;5053655;28;19931;-63
2020/12/19 03:45:17;;;;;;;;;;;14.10;99.90;;;13.57;100.00;100932.28;5054447;28;19932;-63
2020/12/19 03:47:44;;;;;;;;;;;14.20;99.90;;;13.61;100.00;100925.94;5054761;28;19928;-63
2020/12/19 03:50:12;;;;;;;;;;;14.20;99.90;;;13.62;100.00;100929.44;5054660;28;19932;-63
2020/12/19 03:52:39;;;;;;;;;;;14.20;99.90;;;13.60;100.00;100932.47;5053491;28;20331;-63
2020/12/19 03:55:07;;;;;;;;;;;14.20;99.90;;;13.63;100.00;100936.47;5054609;28;19947;-63
2020/12/19 03:57:34;;;;;;;;;;;14.20;99.90;;;13.62;100.00;100932.94;5054454;28;20459;-63
2020/12/19 04:00:01;;;;;;;;;;;14.20;99.90;;;13.66;100.00;100933.97;5054592;28;19947;-63
2020/12/19 04:02:28;;;;;;;;;;;14.20;99.90;;;13.67;100.00;100927.41;5053463;28;20137;-63
2020/12/19 04:04:55;;;;;;;;;;;14.20;99.90;;;13.67;100.00;100929.31;5054371;28;20318;-63
2020/12/19 04:07:23;;;;;;;;;;;14.30;99.90;;;13.68;100.00;100920.84;5054517;28;19925;-64
2020/12/19 04:09:50;;;;;;;;;;;14.30;99.90;;;13.72;100.00;100920.25;5054376;28;19932;-63
2020/12/19 04:12:18;;;;;;;;;;;14.30;99.90;;;13.72;100.00;100920.25;5053136;28;19928;-63
2020/12/19 04:14:45;;;;;;;;;;;14.30;99.90;;;13.79;100.00;100921.44;5054114;28;19932;-63
2020/12/19 04:17:12;;;;;;;;;;;14.40;99.90;;;13.79;100.00;100915.19;5053874;28;20375;-63
2020/12/19 04:19:41;;;;;;;;;;;14.40;99.90;;;13.81;100.00;100912.94;5054267;28;19928;-64
2020/12/19 04:22:08;;;;;;;;;;;14.40;99.90;;;13.83;100.00;100929.78;5052995;28;19932;-63
2020/12/19 04:24:36;;;;;;;;;;;14.40;99.90;;;13.81;100.00;100919.19;5053923;28;20337;-63
2020/12/19 04:27:04;;;;;;;;;;;14.40;99.90;;;13.80;100.00;100927.69;5053893;28;20384;-63
2020/12/19 04:29:31;;;;;;;;;;;14.40;99.90;;;13.75;100.00;100925.88;5053910;28;19924;-64
2020/12/19 04:31:59;;;;;;;;;;;14.40;99.90;;;13.71;100.00;100924.09;5052970;28;20031;-63
2020/12/19 04:34:27;;;;;;;;;;;14.40;99.90;;;13.66;100.00;100920.38;5053809;28;19932;-63
2020/12/19 04:36:55;;;;;;;;;;;14.30;99.90;;;13.64;100.00;100916.34;5053805;28;19929;-63
2020/12/19 04:39:22;;;;;;;;;;;14.30;99.90;;;13.61;100.00;100912.34;5053759;28;19934;-63
2020/12/19 04:41:50;;;;;;;;;;;14.30;99.90;;;13.60;100.00;100912.63;5052689;28;19928;-63
2020/12/19 04:44:17;;;;;;;;;;;14.20;99.90;;;13.58;100.00;100904.00;5053517;28;19928;-63
2020/12/19 04:46:44;;;;;;;;;;;14.20;99.90;;;13.58;100.00;100906.72;5053370;28;19932;-63
2020/12/19 04:49:12;;;;;;;;;;;14.20;99.90;;;13.55;100.00;100899.19;5053632;28;19947;-63
2020/12/19 04:51:39;;;;;;;;;;;14.20;99.90;;;13.54;100.00;100897.56;5052597;28;19951;-63
2020/12/19 04:54:07;;;;;;;;;;;14.20;99.90;;;13.53;100.00;100895.94;5053331;28;19925;-63
2020/12/19 04:56:34;;;;;;;;;;;14.20;99.90;;;13.52;100.00;100883.50;5053477;28;19928;-63
2020/12/19 04:59:04;;;;;;;;;;;14.20;99.90;;;13.51;100.00;100890.84;5053266;28;19986;-63
2020/12/19 05:01:31;;;;;;;;;;;14.10;99.90;;;13.50;100.00;100883.78;5052847;28;19986;-63
2020/12/19 05:03:58;;;;;;;;;;;14.10;99.90;;;13.49;100.00;100878.69;5052799;28;19935;-63
2020/12/19 05:06:27;;;;;;;;;;;14.10;99.90;;;13.49;100.00;100876.78;5053498;28;20315;-63
2020/12/19 05:08:55;;;;;;;;;;;14.10;99.90;;;13.48;100.00;100871.63;5053120;28;19940;-64
2020/12/19 05:11:23;;;;;;;;;;;14.10;99.90;;;13.50;100.00;100866.69;5052855;28;19931;-63
2020/12/19 05:13:51;;;;;;;;;;;14.10;99.90;;;13.50;100.00;100866.69;5052397;28;19924;-63
2020/12/19 05:16:19;;;;;;;;;;;14.10;99.90;;;13.49;100.00;100865.91;5052784;28;19932;-63
2020/12/19 05:18:46;;;;;;;;;;;14.10;99.90;;;13.48;100.00;100867.00;5053008;28;19925;-63
2020/12/19 05:21:14;;;;;;;;;;;14.10;99.90;;;13.49;100.00;100884.13;5052395;28;19932;-63
2020/12/19 05:23:43;;;;;;;;;;;14.10;99.90;;;13.50;100.00;100870.22;5052419;28;19924;-63
2020/12/19 05:26:12;;;;;;;;;;;14.10;99.90;;;13.49;100.00;100879.50;5052864;28;19924;-63
2020/12/19 05:28:40;;;;;;;;;;;14.10;99.90;;;13.49;100.00;100873.25;5052109;28;20334;-63
2020/12/19 05:31:08;;;;;;;;;;;14.10;99.90;;;13.51;100.00;100879.16;5052397;28;19924;-64
2020/12/19 05:33:38;;;;;;;;;;;14.20;99.90;;;13.50;100.00;100874.84;5051795;28;19932;-63
2020/12/19 05:36:06;;;;;;;;;;;14.20;99.90;;;13.52;100.00;100872.63;5052788;28;20427;-63
2020/12/19 05:38:39;;;;;;;;;;;14.20;99.90;;;13.52;100.00;100873.44;5052823;28;19972;-63
2020/12/19 05:41:06;;;;;;;;;;;14.20;99.90;;;13.53;100.00;100882.38;5052550;28;20336;-63
2020/12/19 05:43:33;;;;;;;;;;;14.20;99.90;;;13.53;100.00;100885.09;5051710;28;19971;-63
2020/12/19 05:46:00;;;;;;;;;;;14.20;99.90;;;13.54;100.00;100884.78;5052388;28;19924;-63
2020/12/19 05:48:28;;;;;;;;;;;14.20;99.90;;;13.54;100.00;100883.97;5052486;28;19951;-63
2020/12/19 05:50:56;;;;;;;;;;;14.20;99.90;;;13.55;100.00;100886.41;5052380;28;20347;-63
2020/12/19 05:53:23;;;;;;;;;;;14.20;99.90;;;13.57;100.00;100888.81;5051363;28;19925;-63
2020/12/19 05:55:53;;;;;;;;;;;14.20;99.90;;;13.59;100.00;100892.00;5052518;28;19924;-63
2020/12/19 05:58:22;;;;;;;;;;;14.20;99.90;;;13.59;100.00;100884.66;5052071;28;20287;-63
2020/12/19 06:00:50;;;;;;;;;;;14.20;99.90;;;13.60;100.00;100885.47;5052133;28;20380;-63
2020/12/19 06:03:18;;;;;;;;;;;14.30;99.90;;;13.62;100.00;100896.81;5051080;28;20347;-63
2020/12/19 06:05:46;;;;;;;;;;;14.30;99.90;;;13.63;100.00;100899.25;5052344;28;19928;-63
2020/12/19 06:08:21;;;;;;;;;;;14.30;99.90;;;13.65;100.00;100905.16;5052168;28;19932;-63
2020/12/19 06:10:49;;;;;;;;;;;14.30;99.90;;;13.66;100.00;100904.06;5052028;28;19994;-63
2020/12/19 06:13:17;;;;;;;;;;;14.30;99.90;;;13.67;100.00;100908.41;5050972;28;19983;-63
2020/12/19 06:15:53;;;;;;;;;;;14.30;99.90;;;13.72;100.00;100912.09;5052262;28;20386;-63
2020/12/19 06:18:30;;;;;;;;;;;14.40;99.90;;;13.72;100.00;100915.59;5052081;28;19978;-63
2020/12/19 06:20:57;;;;;;;;;;;14.40;99.90;;;13.75;100.00;100914.19;5052131;28;20306;-63
2020/12/19 06:23:33;;;;;;;;;;;14.40;99.90;;;13.77;100.00;100926.34;5050659;28;19928;-63
2020/12/19 06:26:01;;;;;;;;;;;14.40;99.90;;;13.76;100.00;100924.75;5052236;28;19925;-63
2020/12/19 06:28:50;;;;;;;;;;;14.40;99.90;;;13.80;100.00;100933.88;5051892;28;19924;-63
2020/12/19 06:31:19;;;;;;;;;;;14.40;99.90;;;13.83;100.00;100922.41;5051677;28;19982;-63
2020/12/19 06:33:48;;;;;;;;;;;14.50;99.90;;;13.84;100.00;100934.09;5050958;28;19924;-63
2020/12/19 06:36:20;;;;;;;;;;;14.50;99.90;;;13.83;100.00;100936.00;5051969;28;19932;-63
2020/12/19 06:38:50;;;;;;;;;;;14.50;99.90;;;13.86;100.00;100934.59;5051958;28;19970;-63
2020/12/19 06:41:42;;;;;;;;;;;14.50;99.90;;;13.86;100.00;100938.09;5054678;28;19929;-63
2020/12/19 06:44:11;;;;;;;;;;;14.50;99.90;;;13.86;100.00;100932.66;5055539;28;20292;-63
2020/12/19 06:46:38;;;;;;;;;;;14.50;99.90;;;13.88;100.00;100929.66;5055787;28;19925;-64
2020/12/19 06:49:33;;;;;;;;;;;14.50;99.90;;;13.87;100.00;100925.31;5055634;28;19928;-65
2020/12/19 06:52:05;;;;;;;;;;;14.50;99.90;;;13.89;100.00;100917.66;5045835;28;19931;-65
2020/12/19 06:54:35;;;;;;;;;;;14.60;99.90;;;13.89;100.00;100923.88;5055538;28;19925;-64
2020/12/19 06:57:03;;;;;;;;;;;14.60;99.90;;;13.89;100.00;100921.16;5055683;28;19974;-64
2020/12/19 06:59:31;;;;;;;;;;;14.60;99.90;;;13.90;100.00;100922.78;5055599;28;19925;-65
2020/12/19 07:02:18;;;;;;;;;;;14.60;99.90;;;13.92;100.00;100928.69;5054376;28;19925;-65
2020/12/19 07:04:46;;;;;;;;;;;14.60;99.90;;;13.93;100.00;100930.31;5055468;28;19924;-64
2020/12/19 07:07:15;;;;;;;;;;;14.60;99.90;;;13.94;100.00;100926.50;5055528;28;20319;-65
2020/12/19 07:09:54;;;;;;;;;;;14.60;99.90;;;13.95;100.00;100925.38;5055177;28;19931;-64
2020/12/19 07:12:38;;;;;;;;;;;14.60;99.90;;;13.97;100.00;100920.44;5054461;28;19947;-64
2020/12/19 07:15:06;;;;;;;;;;;14.60;99.90;;;13.96;100.00;100921.53;5055180;28;19925;-65
2020/12/19 07:17:47;;;;;;;;;;;14.60;99.90;;;13.99;100.00;100925.56;5055311;28;19925;-64
2020/12/19 07:20:20;;;;;;;;;;;14.60;99.90;;;13.98;100.00;100921.25;5055192;28;19928;-65
2020/12/19 07:22:47;;;;;;;;;;;14.60;99.90;;;14.00;100.00;100922.53;5054080;28;19925;-65
2020/12/19 07:25:16;;;;;;;;;;;14.70;99.90;;;14.01;100.00;100928.78;5055105;28;20346;-64
2020/12/19 07:27:43;;;;;;;;;;;14.60;99.90;;;14.00;100.00;100929.88;5055260;28;19925;-65
2020/12/19 07:30:10;;;;;;;;;;;14.70;99.90;;;14.00;100.00;100930.69;5054709;28;19925;-63
2020/12/19 07:32:37;;;;;;;;;;;14.70;99.90;;;13.99;100.00;100925.56;5054204;28;20000;-63
2020/12/19 07:35:04;;;;;;;;;;;14.70;99.90;;;13.97;100.00;100931.31;5055057;28;19932;-62
2020/12/19 07:37:33;;;;;;;;;;;14.60;99.90;;;13.99;100.00;100922.84;5055168;28;19925;-65
2020/12/19 07:40:07;;;;;;;;;;;14.60;99.90;;;13.99;100.00;100931.00;5054736;28;19925;-63
2020/12/19 07:42:35;;;;;;;;;;;14.70;99.90;;;13.99;100.00;100936.44;5054145;28;19935;-63
2020/12/19 07:45:02;;;;;;;;;;;14.60;99.90;;;13.99;100.00;100936.44;5054670;28;19924;-64
2020/12/19 07:47:30;;;;;;;;;;;14.60;99.90;;;13.97;100.00;100928.59;5054905;28;19929;-63
2020/12/19 07:49:58;;;;;;;;;;;14.60;99.90;;;13.99;100.00;100937.25;5054323;28;20372;-63
2020/12/19 07:52:26;;;;;;;;;;;14.70;99.90;;;14.01;100.00;100940.44;5053180;28;20351;-63
2020/12/19 07:55:00;;;;;;;;;;;14.70;99.90;;;14.01;100.00;100940.44;5054560;28;20303;-63
2020/12/19 07:57:29;;;;;;;;;;;14.70;99.90;;;14.01;100.00;100945.88;5054626;28;20378;-63
2020/12/19 07:59:57;;;;;;;;;;;14.70;99.90;;;14.03;100.00;100943.66;5054365;28;19925;-62
2020/12/19 08:02:25;;;;;;;;;;;14.70;99.90;;;14.04;100.00;100939.03;5053362;28;19970;-64
2020/12/19 08:04:56;;;;;;;;;;;14.70;99.90;;;14.03;100.00;100945.59;5054333;28;19924;-65
2020/12/19 08:07:25;;;;;;;;;;;14.70;99.90;;;14.02;100.00;100952.94;5054646;28;19925;-62
2020/12/19 08:09:59;;;;;;;;;;;14.70;99.90;;;14.03;100.00;100954.56;5054201;28;19925;-63
2020/12/19 08:12:28;;;;;;;;;;;14.70;99.90;;;14.03;100.00;100951.81;5053125;28;20288;-63
2020/12/19 08:14:56;;;;;;;;;;;14.70;99.90;;;14.03;100.00;100959.19;5054275;28;19929;-63
2020/12/19 08:17:25;;;;;;;;;;;14.70;99.90;;;14.04;100.00;100964.28;5054254;28;19932;-63
2020/12/19 08:19:54;;;;;;;;;;;14.70;99.90;;;14.05;100.00;100957.75;5054026;28;19932;-63
2020/12/19 08:22:22;;;;;;;;;;;14.70;99.90;;;14.05;100.00;100963.19;5052874;28;19929;-63
2020/12/19 08:24:50;;;;;;;;;;;14.70;99.90;;;14.06;100.00;100966.72;5053974;28;20387;-63
2020/12/19 08:27:46;;;;;;;;;;;14.70;99.90;;;14.05;100.00;100968.63;5054065;28;20354;-63
2020/12/19 08:30:22;;;;;;;;;;;14.70;99.90;;;14.05;100.00;100968.63;5053644;28;20031;-63
2020/12/19 08:32:51;;;;;;;;;;;14.70;99.90;;;14.07;100.00;100976.50;5052870;28;19932;-63
2020/12/19 08:35:22;;;;;;;;;;;14.70;99.90;;;14.07;100.00;100969.13;5053706;28;20459;-63
2020/12/19 08:37:50;;;;;;;;;;;14.70;99.90;;;14.05;100.00;100976.78;5053960;28;19956;-63
2020/12/19 08:40:18;;;;;;;;;;;14.70;99.90;;;14.06;100.00;100980.31;5053413;28;20451;-63
2020/12/19 08:42:47;;;;;;;;;;;14.70;99.90;;;14.06;100.00;100980.31;5052734;28;19925;-63
2020/12/19 08:45:27;;;;;;;;;;;14.70;99.90;;;14.05;100.00;100979.50;5053610;28;19936;-63
2020/12/19 08:47:56;;;;;;;;;;;14.70;99.90;;;14.04;100.00;100983.31;5053830;28;19929;-63
2020/12/19 08:50:25;;;;;;;;;;;14.70;99.90;;;14.06;100.00;100989.28;5053288;28;19948;-63
2020/12/19 08:53:12;;;;;;;;;;;14.70;99.90;;;14.07;100.00;100993.59;5052531;28;19924;-63
2020/12/19 08:55:40;;;;;;;;;;;14.70;99.90;;;14.09;100.00;101001.44;5053529;28;19948;-63
2020/12/19 08:58:07;;;;;;;;;;;14.70;99.90;;;14.11;100.00;101000.03;5053623;28;20269;-64
2020/12/19 09:00:38;;;;;;;;;;;14.70;99.90;;;14.11;100.00;100999.22;5053050;28;19928;-65
2020/12/19 09:03:09;;;;;;;;;;;14.80;99.90;;;14.14;100.00;101004.03;5052339;28;19921;-64
2020/12/19 09:05:38;;;;;;;;;;;14.80;99.90;;;14.14;100.00;101006.75;5052810;28;19931;-65
2020/12/19 09:08:10;;;;;;;;;;;14.80;99.90;;;14.14;100.00;101004.84;5053274;28;20358;-64
2020/12/19 09:10:38;;;;;;;;;;;14.80;99.90;;;14.16;100.00;101002.59;5052712;28;19929;-64
2020/12/19 09:13:16;;;;;;;;;;;14.80;99.90;;;14.18;100.00;101008.56;5052492;28;19921;-65
2020/12/19 09:15:45;;;;;;;;;;;14.80;99.90;;;14.17;100.00;101000.69;5053321;28;20442;-64
2020/12/19 09:18:13;;;;;;;;;;;14.80;99.90;;;14.17;100.00;100992.53;5053253;28;19925;-65
2020/12/19 09:20:40;;;;;;;;;;;14.80;99.90;;;14.20;100.00;100989.19;5052484;28;19929;-62
2020/12/19 09:23:07;;;;;;;;;;;14.80;99.90;;;14.22;100.00;100985.09;5051907;28;19929;-65
2020/12/19 09:25:35;;;;;;;;;;;14.90;99.90;;;14.23;100.00;100980.41;5052998;28;19928;-63
2020/12/19 09:28:02;;;;;;;;;;;14.90;99.90;;;14.22;100.00;100979.66;5052997;28;19925;-63
2020/12/19 09:30:29;;;;;;;;;;;14.80;99.90;;;14.20;100.00;100981.03;5052483;28;19929;-63
2020/12/19 09:32:58;;;;;;;;;;;14.80;99.90;;;14.13;100.00;100967.88;5051756;28;20379;-63
2020/12/19 09:35:26;;;;;;;;;;;14.80;99.90;;;14.09;100.00;100958.75;5052676;28;19963;-63
2020/12/19 09:37:54;;;;;;;;;;;14.70;99.90;;;14.07;100.00;100966.38;5052812;28;19925;-63
2020/12/19 09:40:21;;;;;;;;;;;14.70;99.90;;;14.05;100.00;100955.03;5052432;28;19924;-63
2020/12/19 09:42:48;;;;;;;;;;;14.60;99.90;;;14.04;100.00;100953.41;5051423;28;19929;-64
2020/12/19 09:45:15;;;;;;;;;;;14.60;99.90;;;14.04;100.00;100949.91;5052590;28;19924;-63
2020/12/19 09:47:43;;;;;;;;;;;14.60;99.90;;;14.06;100.00;100948.50;5052557;28;20421;-63
2020/12/19 09:50:11;;;;;;;;;;;14.60;99.90;;;14.08;100.00;100956.31;5052416;28;19925;-63
2020/12/19 09:52:39;;;;;;;;;;;14.70;99.90;;;14.12;100.00;100965.47;5051268;28;19925;-63
2020/12/19 09:55:07;;;;;;;;;;;14.70;99.90;;;14.13;100.00;100970.59;5052490;28;19925;-63
2020/12/19 09:57:34;;;;;;;;;;;14.70;99.90;;;14.18;100.00;100977.84;5052431;28;19929;-63
2020/12/19 10:00:01;;;;;;;;;;;14.80;99.90;;;14.24;100.00;100974.69;5052345;28;19925;-63
2020/12/19 10:02:29;;;;;;;;;;;14.80;99.90;;;14.28;100.00;100982.22;5051304;28;19994;-63
2020/12/19 10:04:56;;;;;;;;;;;14.90;99.90;;;14.37;100.00;100977.69;5052126;28;20379;-63
2020/12/19 10:07:24;;;;;;;;;;;14.90;99.90;;;14.44;100.00;100987.00;5052395;28;19924;-64
2020/12/19 10:09:51;;;;;;;;;;;14.90;99.90;;;14.48;100.00;100968.94;5052176;28;19925;-63
2020/12/19 10:12:18;;;;;;;;;;;15.00;99.90;;;14.56;100.00;100976.34;5051209;28;19932;-64
2020/12/19 10:14:45;;;;;;;;;;;15.10;99.90;;;14.64;100.00;100967.44;5051775;28;19932;-64
2020/12/19 10:17:13;;;;;;;;;;;15.10;99.90;;;14.71;100.00;100958.81;5052255;28;19929;-64
2020/12/19 10:19:40;;;;;;;;;;;15.20;99.90;;;14.83;100.00;100966.38;5052067;28;19925;-64
2020/12/19 10:22:07;;;;;;;;;;;15.30;99.90;;;14.90;100.00;100972.97;5051149;28;20323;-63
2020/12/19 10:24:35;;;;;;;;;;;15.40;99.90;;;14.94;100.00;100970.41;5052076;28;19952;-63
2020/12/19 10:27:02;;;;;;;;;;;15.40;99.90;;;14.97;100.00;100961.63;5052063;28;19936;-64
2020/12/19 10:29:29;;;;;;;;;;;15.40;99.90;;;14.98;100.00;100972.22;5051836;28;19933;-64
2020/12/19 10:31:57;;;;;;;;;;;15.50;99.90;;;14.97;100.00;100984.22;5051132;28;19932;-63
2020/12/19 10:34:24;;;;;;;;;;;15.40;99.90;;;15.08;100.00;100982.81;5051777;28;19924;-64
2020/12/19 10:36:52;;;;;;;;;;;15.50;99.90;;;15.36;100.00;100985.28;5051897;28;19925;-64
2020/12/19 10:39:19;;;;;;;;;;;15.70;99.90;;;15.50;100.00;100980.53;5051928;28;19925;-64
2020/12/19 10:41:50;;;;;;;;;;;15.80;99.90;;;15.42;100.00;100978.56;5051150;28;19951;-64
2020/12/19 10:44:18;;;;;;;;;;;15.80;99.90;;;15.37;100.00;100981.44;5051568;28;19984;-64
2020/12/19 10:46:45;;;;;;;;;;;15.80;99.90;;;15.40;100.00;100978.91;5052054;28;19979;-63
2020/12/19 10:49:13;;;;;;;;;;;15.80;99.90;;;15.35;100.00;100976.28;5051818;28;19926;-63
2020/12/19 10:51:40;;;;;;;;;;;15.80;99.90;;;15.26;100.00;100972.75;5050988;28;19928;-63
2020/12/19 10:54:07;;;;;;;;;;;15.70;99.90;;;15.21;100.00;100965.53;5051408;28;19932;-63
2020/12/19 10:56:34;;;;;;;;;;;15.70;99.90;;;15.15;100.00;100974.97;5051868;28;20319;-63
2020/12/19 10:59:02;;;;;;;;;;;15.70;99.90;;;15.12;100.00;100972.09;5051797;28;19924;-63
2020/12/19 11:01:29;;;;;;;;;;;15.70;99.90;;;15.12;100.00;100967.44;5051393;28;19928;-64
2020/12/19 11:03:57;;;;;;;;;;;15.70;99.90;;;15.15;100.00;100974.19;5051023;28;19929;-63
2020/12/19 11:06:25;;;;;;;;;;;15.60;99.90;;;15.23;100.00;100967.94;5051734;28;19932;-63
2020/12/19 11:08:54;;;;;;;;;;;15.70;99.90;;;15.36;100.00;100956.13;5051599;28;19925;-63